createdAt,value
2022-08-16T00:00:03.189Z,997.44
2022-08-16T00:00:20.128Z,997.44
2022-08-16T00:00:43.139Z,997.46
2022-08-16T00:01:04.192Z,997.46
2022-08-16T00:01:33.988Z,997.44
2022-08-16T00:01:54.580Z,997.46
2022-08-16T00:02:15.613Z,997.44
2022-08-16T00:02:36.644Z,997.44
2022-08-16T00:02:57.850Z,997.44
2022-08-16T00:03:18.898Z,997.44
2022-08-16T00:03:40.853Z,997.42
2022-08-16T00:04:02.005Z,997.42
2022-08-16T00:04:26.530Z,997.44
2022-08-16T00:04:47.581Z,997.46
2022-08-16T00:05:12.184Z,997.44
2022-08-16T00:05:34.917Z,997.46
2022-08-16T00:05:57.800Z,997.44
2022-08-16T00:06:19.008Z,997.44
2022-08-16T00:06:40.449Z,997.48
2022-08-16T00:07:01.490Z,997.46
2022-08-16T00:07:23.954Z,997.48
2022-08-16T00:07:45.006Z,997.46
2022-08-16T00:08:06.334Z,997.46
2022-08-16T00:08:37.384Z,997.46
2022-08-16T00:08:55.760Z,997.42
2022-08-16T00:09:16.819Z,997.42
2022-08-16T00:09:37.880Z,997.42
2022-08-16T00:10:02.755Z,997.44
2022-08-16T00:10:23.816Z,997.42
2022-08-16T00:10:45.958Z,997.42
2022-08-16T00:11:07.009Z,997.44
2022-08-16T00:11:28.056Z,997.46
2022-08-16T00:11:52.755Z,997.46
2022-08-16T00:12:17.901Z,997.44
2022-08-16T00:12:39.630Z,997.44
2022-08-16T00:13:02.763Z,997.46
2022-08-16T00:13:24.496Z,997.48
2022-08-16T00:13:54.021Z,997.46
2022-08-16T00:14:16.521Z,997.46
2022-08-16T00:14:39.532Z,997.48
2022-08-16T00:15:00.587Z,997.48
2022-08-16T00:15:22.016Z,997.50
2022-08-16T00:15:51.626Z,997.50
2022-08-16T00:17:01.068Z,997.48
2022-08-16T00:17:06.598Z,997.52
2022-08-16T00:17:18.235Z,997.56
2022-08-16T00:17:56.069Z,997.58
2022-08-16T00:17:58.425Z,997.58
2022-08-16T00:18:19.486Z,997.56
2022-08-16T00:18:43.405Z,997.58
2022-08-16T00:19:04.448Z,997.58
2022-08-16T00:19:28.436Z,997.58
2022-08-16T00:19:54.952Z,997.58
2022-08-16T00:20:16.229Z,997.58
2022-08-16T00:20:41.985Z,997.56
2022-08-16T00:21:04.533Z,997.66
2022-08-16T00:21:25.576Z,997.66
2022-08-16T00:21:53.360Z,997.58
2022-08-16T00:22:17.171Z,997.56
2022-08-16T00:22:42.891Z,997.56
2022-08-16T00:23:03.973Z,997.58
2022-08-16T00:23:34.789Z,997.56
2022-08-16T00:23:53.937Z,997.56
2022-08-16T00:24:30.855Z,997.52
2022-08-16T00:24:44.483Z,997.58
2022-08-16T00:25:06.031Z,997.56
2022-08-16T00:26:33.764Z,997.56
2022-08-16T00:26:36.271Z,997.56
2022-08-16T00:26:36.556Z,997.58
2022-08-16T00:26:47.985Z,997.66
2022-08-16T00:27:11.256Z,997.66
2022-08-16T00:27:32.303Z,997.66
2022-08-16T00:27:53.357Z,997.58
2022-08-16T00:28:14.911Z,997.58
2022-08-16T00:28:35.973Z,997.66
2022-08-16T00:28:57.439Z,997.66
2022-08-16T00:29:20.248Z,997.66
2022-08-16T00:29:42.480Z,997.58
2022-08-16T00:30:19.383Z,997.58
2022-08-16T00:30:30.472Z,997.70
2022-08-16T00:30:51.523Z,997.68
2022-08-16T00:31:14.281Z,997.68
2022-08-16T00:31:59.410Z,997.58
2022-08-16T00:32:06.116Z,997.66
2022-08-16T00:32:27.474Z,997.70
2022-08-16T00:32:57.053Z,997.68
2022-08-16T00:33:18.323Z,997.68
2022-08-16T00:33:39.944Z,997.66
2022-08-16T00:34:00.990Z,997.68
2022-08-16T00:34:43.320Z,997.66
2022-08-16T00:34:53.781Z,997.68
2022-08-16T00:35:15.963Z,997.70
2022-08-16T00:35:37.560Z,997.66
2022-08-16T00:35:58.606Z,997.68
2022-08-16T00:36:21.326Z,997.68
2022-08-16T00:36:47.118Z,997.66
2022-08-16T00:37:09.368Z,997.66
2022-08-16T00:37:57.393Z,997.66
2022-08-16T00:37:59.469Z,997.68
2022-08-16T00:38:41.045Z,997.68
2022-08-16T00:38:47.524Z,997.70
2022-08-16T00:39:09.213Z,997.68
2022-08-16T00:39:36.255Z,997.68
2022-08-16T00:39:58.810Z,997.72
2022-08-16T00:40:33.648Z,997.72
2022-08-16T00:40:53.429Z,997.70
2022-08-16T00:41:13.936Z,997.70
2022-08-16T00:41:38.291Z,997.74
2022-08-16T00:41:59.403Z,997.72
2022-08-16T00:42:30.507Z,997.72
2022-08-16T00:42:48.373Z,997.74
2022-08-16T00:43:16.989Z,997.76
2022-08-16T00:43:42.800Z,997.74
2022-08-16T00:44:04.565Z,997.76
2022-08-16T00:44:32.681Z,997.76
2022-08-16T00:44:52.582Z,997.78
2022-08-16T00:45:14.883Z,997.74
2022-08-16T00:45:36.352Z,997.76
2022-08-16T00:46:00.051Z,997.80
2022-08-16T00:46:22.416Z,997.80
2022-08-16T00:46:54.069Z,997.80
2022-08-16T00:47:15.798Z,997.78
2022-08-16T00:47:36.943Z,997.80
2022-08-16T00:47:58.104Z,997.78
2022-08-16T00:48:30.396Z,997.78
2022-08-16T00:48:46.127Z,997.78
2022-08-16T00:49:07.165Z,997.82
2022-08-16T00:49:39.395Z,997.78
2022-08-16T00:50:01.095Z,997.80
2022-08-16T00:50:22.153Z,997.76
2022-08-16T00:50:49.120Z,997.76
2022-08-16T00:51:17.474Z,997.76
2022-08-16T00:51:38.783Z,997.74
2022-08-16T00:51:59.777Z,997.76
2022-08-16T00:52:29.499Z,997.76
2022-08-16T00:52:50.883Z,997.76
2022-08-16T00:53:12.555Z,997.76
2022-08-16T00:53:33.918Z,997.76
2022-08-16T00:53:54.964Z,997.76
2022-08-16T00:54:16.014Z,997.76
2022-08-16T00:54:42.978Z,997.74
2022-08-16T00:55:08.474Z,997.76
2022-08-16T00:55:37.713Z,997.76
2022-08-16T00:55:56.548Z,997.78
2022-08-16T00:56:56.242Z,997.74
2022-08-16T00:56:57.151Z,997.74
2022-08-16T00:57:11.684Z,997.78
2022-08-16T00:57:59.015Z,997.78
2022-08-16T00:58:00.774Z,997.80
2022-08-16T00:58:34.500Z,997.78
2022-08-16T00:58:48.916Z,997.82
2022-08-16T00:59:11.107Z,997.78
2022-08-16T00:59:36.117Z,997.78
2022-08-16T01:00:03.087Z,997.80
2022-08-16T01:00:24.152Z,997.76
2022-08-16T01:00:45.277Z,997.76
2022-08-16T01:01:12.234Z,997.78
2022-08-16T01:01:33.535Z,997.78
2022-08-16T01:01:57.030Z,997.74
2022-08-16T01:02:31.329Z,997.76
2022-08-16T01:02:48.828Z,997.76
2022-08-16T01:03:11.726Z,997.72
2022-08-16T01:03:35.121Z,997.74
2022-08-16T01:03:56.225Z,997.74
2022-08-16T01:04:29.679Z,997.74
2022-08-16T01:04:44.235Z,997.74
2022-08-16T01:05:12.047Z,997.72
2022-08-16T01:05:33.278Z,997.74
2022-08-16T01:05:54.326Z,997.74
2022-08-16T01:06:32.690Z,997.74
2022-08-16T01:07:01.338Z,997.70
2022-08-16T01:07:09.335Z,997.72
2022-08-16T01:07:51.965Z,997.74
2022-08-16T01:07:57.347Z,997.74
2022-08-16T01:08:36.380Z,997.76
2022-08-16T01:08:46.601Z,997.74
2022-08-16T01:09:07.651Z,997.72
2022-08-16T01:09:33.526Z,997.76
2022-08-16T01:09:55.058Z,997.74
2022-08-16T01:10:16.768Z,997.76
2022-08-16T01:10:38.172Z,997.74
2022-08-16T01:11:00.061Z,997.72
2022-08-16T01:11:21.174Z,997.74
2022-08-16T01:11:51.956Z,997.74
2022-08-16T01:12:11.024Z,997.78
2022-08-16T01:12:37.985Z,997.76
2022-08-16T01:13:00.183Z,997.78
2022-08-16T01:13:21.340Z,997.76
2022-08-16T01:13:42.524Z,997.76
2022-08-16T01:14:03.570Z,997.76
2022-08-16T01:14:29.745Z,997.78
2022-08-16T01:14:51.584Z,997.78
2022-08-16T01:15:14.443Z,997.78
2022-08-16T01:15:35.506Z,997.76
2022-08-16T01:15:56.602Z,997.78
2022-08-16T01:16:20.117Z,997.74
2022-08-16T01:16:41.265Z,997.76
2022-08-16T01:17:03.027Z,997.74
2022-08-16T01:17:24.107Z,997.76
2022-08-16T01:17:45.393Z,997.74
2022-08-16T01:18:39.277Z,997.76
2022-08-16T01:18:41.442Z,997.76
2022-08-16T01:19:02.787Z,997.76
2022-08-16T01:19:23.814Z,997.78
2022-08-16T01:19:44.868Z,997.76
2022-08-16T01:20:23.836Z,997.76
2022-08-16T01:20:32.903Z,997.76
2022-08-16T01:20:55.137Z,997.76
2022-08-16T01:21:16.825Z,997.78
2022-08-16T01:21:43.798Z,997.80
2022-08-16T01:22:47.568Z,997.78
2022-08-16T01:22:50.217Z,997.76
2022-08-16T01:23:00.050Z,997.76
2022-08-16T01:23:21.313Z,997.78
2022-08-16T01:24:01.036Z,997.76
2022-08-16T01:24:52.154Z,997.74
2022-08-16T01:24:53.174Z,997.74
2022-08-16T01:25:03.255Z,997.74
2022-08-16T01:25:24.303Z,997.72
2022-08-16T01:25:59.787Z,997.74
2022-08-16T01:26:39.229Z,997.74
2022-08-16T01:27:03.896Z,997.70
2022-08-16T01:27:25.150Z,997.72
2022-08-16T01:27:46.763Z,997.72
2022-08-16T01:28:07.812Z,997.72
2022-08-16T01:28:30.851Z,997.72
2022-08-16T01:28:52.329Z,997.72
2022-08-16T01:29:13.377Z,997.68
2022-08-16T01:29:34.426Z,997.70
2022-08-16T01:30:01.395Z,997.72
2022-08-16T01:30:22.438Z,997.70
2022-08-16T01:30:49.851Z,997.70
2022-08-16T01:31:11.485Z,997.70
2022-08-16T01:31:32.553Z,997.70
2022-08-16T01:31:58.505Z,997.68
2022-08-16T01:32:31.606Z,997.70
2022-08-16T01:32:59.642Z,997.70
2022-08-16T01:33:15.895Z,997.68
2022-08-16T01:33:37.357Z,997.70
2022-08-16T01:33:58.401Z,997.68
2022-08-16T01:34:25.376Z,997.66
2022-08-16T01:34:47.328Z,997.70
2022-08-16T01:35:08.701Z,997.68
2022-08-16T01:35:36.260Z,997.68
2022-08-16T01:35:57.456Z,997.66
2022-08-16T01:36:18.502Z,997.72
2022-08-16T01:36:39.681Z,997.70
2022-08-16T01:37:02.050Z,997.68
2022-08-16T01:37:23.517Z,997.76
2022-08-16T01:37:44.564Z,997.74
2022-08-16T01:38:11.528Z,997.74
2022-08-16T01:38:38.495Z,997.72
2022-08-16T01:38:59.549Z,997.74
2022-08-16T01:39:20.735Z,997.76
2022-08-16T01:39:44.382Z,997.74
2022-08-16T01:40:07.005Z,997.76
2022-08-16T01:40:28.356Z,997.76
2022-08-16T01:40:49.991Z,997.76
2022-08-16T01:41:11.034Z,997.80
2022-08-16T01:41:34.249Z,997.78
2022-08-16T01:42:01.325Z,997.80
2022-08-16T01:42:25.450Z,997.80
2022-08-16T01:42:48.302Z,997.82
2022-08-16T01:43:11.902Z,997.78
2022-08-16T01:43:33.763Z,997.82
2022-08-16T01:43:54.844Z,997.80
2022-08-16T01:44:18.608Z,997.80
2022-08-16T01:44:39.777Z,997.80
2022-08-16T01:45:00.788Z,997.82
2022-08-16T01:45:21.840Z,997.84
2022-08-16T01:45:43.609Z,997.84
2022-08-16T01:46:37.155Z,997.82
2022-08-16T01:46:39.363Z,997.86
2022-08-16T01:46:58.580Z,997.86
2022-08-16T01:47:19.945Z,997.86
2022-08-16T01:47:49.451Z,997.90
2022-08-16T01:48:19.104Z,997.96
2022-08-16T01:48:35.552Z,997.94
2022-08-16T01:48:56.614Z,997.94
2022-08-16T01:49:18.340Z,997.90
2022-08-16T01:50:40.671Z,997.94
2022-08-16T01:50:42.686Z,997.90
2022-08-16T01:50:43.440Z,997.94
2022-08-16T01:51:09.568Z,997.94
2022-08-16T01:51:27.269Z,997.94
2022-08-16T01:51:48.939Z,997.92
2022-08-16T01:52:28.294Z,997.92
2022-08-16T01:52:37.425Z,997.86
2022-08-16T01:52:59.614Z,997.88
2022-08-16T01:53:21.512Z,997.88
2022-08-16T01:53:43.228Z,997.84
2022-08-16T01:54:04.278Z,997.86
2022-08-16T01:54:31.207Z,997.86
2022-08-16T01:54:53.482Z,997.88
2022-08-16T01:55:14.619Z,997.86
2022-08-16T01:55:37.379Z,997.88
2022-08-16T01:56:01.863Z,997.88
2022-08-16T01:56:24.996Z,997.86
2022-08-16T01:56:46.347Z,997.90
2022-08-16T01:57:11.490Z,997.92
2022-08-16T01:57:32.534Z,997.92
2022-08-16T01:57:56.677Z,997.90
2022-08-16T01:58:21.066Z,997.88
2022-08-16T01:58:47.989Z,997.90
2022-08-16T01:59:15.411Z,997.90
2022-08-16T01:59:36.135Z,997.88
2022-08-16T01:59:57.194Z,997.88
2022-08-16T02:00:19.166Z,997.84
2022-08-16T02:00:40.645Z,997.88
2022-08-16T02:01:01.691Z,997.84
2022-08-16T02:01:22.801Z,997.84
2022-08-16T02:01:43.894Z,997.84
2022-08-16T02:02:22.166Z,997.84
2022-08-16T02:02:42.444Z,997.82
2022-08-16T02:03:04.731Z,997.80
2022-08-16T02:03:26.736Z,997.80
2022-08-16T02:03:50.344Z,997.78
2022-08-16T02:04:11.850Z,997.80
2022-08-16T02:04:49.605Z,997.82
2022-08-16T02:04:59.863Z,997.80
2022-08-16T02:05:21.318Z,997.80
2022-08-16T02:05:51.788Z,997.78
2022-08-16T02:06:11.663Z,997.76
2022-08-16T02:06:34.300Z,997.80
2022-08-16T02:06:56.630Z,997.78
2022-08-16T02:07:17.686Z,997.76
2022-08-16T02:07:38.943Z,997.78
2022-08-16T02:08:05.929Z,997.80
2022-08-16T02:08:33.768Z,997.80
2022-08-16T02:08:55.154Z,997.80
2022-08-16T02:09:18.049Z,997.78
2022-08-16T02:09:39.217Z,997.82
2022-08-16T02:10:02.144Z,997.78
2022-08-16T02:10:24.051Z,997.82
2022-08-16T02:10:46.876Z,997.84
2022-08-16T02:11:08.196Z,997.84
2022-08-16T02:11:48.302Z,997.84
2022-08-16T02:11:56.212Z,997.84
2022-08-16T02:12:50.071Z,997.84
2022-08-16T02:12:51.829Z,997.84
2022-08-16T02:13:11.213Z,997.84
2022-08-16T02:13:32.873Z,997.82
2022-08-16T02:13:54.837Z,997.82
2022-08-16T02:14:18.159Z,997.84
2022-08-16T02:14:39.679Z,997.84
2022-08-16T02:15:01.043Z,997.86
2022-08-16T02:15:25.261Z,997.86
2022-08-16T02:15:46.623Z,997.82
2022-08-16T02:16:18.782Z,997.84
2022-08-16T02:16:38.516Z,997.90
2022-08-16T02:17:01.741Z,997.88
2022-08-16T02:17:25.563Z,997.86
2022-08-16T02:17:49.470Z,997.88
2022-08-16T02:18:13.733Z,997.88
2022-08-16T02:18:40.695Z,997.88
2022-08-16T02:19:03.482Z,997.86
2022-08-16T02:19:58.998Z,997.90
2022-08-16T02:19:59.139Z,997.88
2022-08-16T02:20:26.395Z,997.90
2022-08-16T02:20:48.387Z,997.86
2022-08-16T02:21:09.436Z,997.86
2022-08-16T02:21:31.502Z,997.84
2022-08-16T02:22:08.585Z,997.84
2022-08-16T02:22:34.603Z,997.84
2022-08-16T02:22:47.008Z,997.84
2022-08-16T02:23:08.037Z,997.82
2022-08-16T02:23:29.728Z,997.82
2022-08-16T02:23:55.725Z,997.84
2022-08-16T02:24:31.892Z,997.80
2022-08-16T02:24:46.119Z,997.82
2022-08-16T02:25:07.203Z,997.80
2022-08-16T02:25:52.485Z,997.84
2022-08-16T02:25:59.936Z,997.84
2022-08-16T02:26:21.031Z,997.84
2022-08-16T02:26:42.825Z,997.84
2022-08-16T02:27:04.234Z,997.86
2022-08-16T02:27:26.242Z,997.86
2022-08-16T02:27:50.636Z,997.88
2022-08-16T02:28:12.330Z,997.82
2022-08-16T02:28:38.313Z,997.88
2022-08-16T02:29:05.280Z,997.84
2022-08-16T02:29:32.298Z,997.80
2022-08-16T02:30:05.702Z,997.84
2022-08-16T02:30:36.923Z,997.90
2022-08-16T02:30:50.839Z,997.88
2022-08-16T02:31:12.656Z,997.86
2022-08-16T02:32:03.157Z,997.88
2022-08-16T02:32:04.501Z,997.86
2022-08-16T02:32:50.033Z,997.90
2022-08-16T02:32:54.595Z,997.90
2022-08-16T02:33:15.709Z,997.86
2022-08-16T02:33:43.785Z,997.84
2022-08-16T02:34:06.321Z,997.84
2022-08-16T02:34:33.050Z,997.86
2022-08-16T02:34:56.545Z,997.80
2022-08-16T02:35:17.671Z,997.84
2022-08-16T02:35:49.644Z,997.82
2022-08-16T02:36:14.182Z,997.80
2022-08-16T02:36:48.181Z,997.80
2022-08-16T02:37:02.626Z,997.78
2022-08-16T02:37:23.675Z,997.80
2022-08-16T02:37:52.724Z,997.78
2022-08-16T02:38:14.079Z,997.78
2022-08-16T02:38:36.880Z,997.78
2022-08-16T02:38:57.932Z,997.76
2022-08-16T02:39:19.225Z,997.76
2022-08-16T02:39:43.489Z,997.78
2022-08-16T02:40:04.522Z,997.76
2022-08-16T02:40:27.887Z,997.76
2022-08-16T02:40:50.138Z,997.74
2022-08-16T02:41:11.228Z,997.78
2022-08-16T02:41:34.180Z,997.78
2022-08-16T02:42:00.250Z,997.76
2022-08-16T02:42:21.307Z,997.76
2022-08-16T02:42:42.351Z,997.74
2022-08-16T02:43:03.415Z,997.74
2022-08-16T02:43:26.823Z,997.72
2022-08-16T02:43:48.481Z,997.70
2022-08-16T02:44:09.810Z,997.72
2022-08-16T02:44:30.869Z,997.72
2022-08-16T02:44:51.906Z,997.72
2022-08-16T02:45:12.980Z,997.72
2022-08-16T02:45:34.980Z,997.72
2022-08-16T02:45:56.306Z,997.70
2022-08-16T02:46:17.418Z,997.72
2022-08-16T02:46:38.477Z,997.68
2022-08-16T02:46:59.524Z,997.68
2022-08-16T02:47:24.922Z,997.68
2022-08-16T02:48:01.775Z,997.70
2022-08-16T02:48:30.092Z,997.66
2022-08-16T02:48:49.391Z,997.66
2022-08-16T02:49:08.430Z,997.66
2022-08-16T02:49:59.283Z,997.68
2022-08-16T02:50:25.813Z,997.68
2022-08-16T02:50:53.584Z,997.66
2022-08-16T02:50:55.296Z,997.66
2022-08-16T02:51:17.902Z,997.58
2022-08-16T02:51:39.207Z,997.68
2022-08-16T02:52:02.175Z,997.70
2022-08-16T02:52:24.675Z,997.68
2022-08-16T02:52:46.141Z,997.68
2022-08-16T02:53:10.733Z,997.72
2022-08-16T02:53:31.779Z,997.72
2022-08-16T02:53:52.889Z,997.72
2022-08-16T02:54:13.943Z,997.72
2022-08-16T02:54:38.057Z,997.70
2022-08-16T02:55:00.014Z,997.72
2022-08-16T02:55:40.866Z,997.70
2022-08-16T02:55:50.435Z,997.72
2022-08-16T02:56:11.649Z,997.74
2022-08-16T02:56:35.670Z,997.72
2022-08-16T02:56:58.036Z,997.72
2022-08-16T02:57:20.605Z,997.76
2022-08-16T02:57:42.391Z,997.74
2022-08-16T02:58:08.897Z,997.74
2022-08-16T02:58:30.370Z,997.74
2022-08-16T02:58:51.676Z,997.74
2022-08-16T02:59:14.534Z,997.70
2022-08-16T02:59:39.732Z,997.72
2022-08-16T03:00:32.064Z,997.70
2022-08-16T03:00:34.410Z,997.74
2022-08-16T03:00:57.275Z,997.70
2022-08-16T03:01:25.422Z,997.72
2022-08-16T03:01:45.392Z,997.70
2022-08-16T03:02:08.830Z,997.76
2022-08-16T03:02:31.837Z,997.72
2022-08-16T03:02:55.901Z,997.74
2022-08-16T03:03:17.663Z,997.74
2022-08-16T03:04:29.257Z,997.76
2022-08-16T03:04:40.996Z,997.72
2022-08-16T03:04:50.542Z,997.76
2022-08-16T03:04:59.780Z,997.76
2022-08-16T03:05:20.934Z,997.72
2022-08-16T03:05:41.980Z,997.74
2022-08-16T03:06:03.470Z,997.74
2022-08-16T03:06:41.347Z,997.72
2022-08-16T03:06:57.615Z,997.74
2022-08-16T03:07:18.659Z,997.76
2022-08-16T03:07:51.003Z,997.76
2022-08-16T03:08:49.881Z,997.68
2022-08-16T03:08:51.719Z,997.70
2022-08-16T03:09:08.820Z,997.70
2022-08-16T03:09:33.479Z,997.68
2022-08-16T03:09:54.724Z,997.68
2022-08-16T03:10:15.770Z,997.68
2022-08-16T03:10:36.846Z,997.70
2022-08-16T03:11:00.113Z,997.66
2022-08-16T03:11:21.802Z,997.68
2022-08-16T03:11:43.002Z,997.68
2022-08-16T03:12:04.065Z,997.66
2022-08-16T03:12:30.319Z,997.70
2022-08-16T03:12:55.920Z,997.66
2022-08-16T03:13:17.638Z,997.68
2022-08-16T03:13:40.386Z,997.68
2022-08-16T03:14:01.517Z,997.68
2022-08-16T03:14:28.483Z,997.68
2022-08-16T03:14:49.532Z,997.68
2022-08-16T03:15:10.589Z,997.72
2022-08-16T03:15:32.948Z,997.72
2022-08-16T03:15:54.108Z,997.72
2022-08-16T03:16:32.673Z,997.74
2022-08-16T03:17:00.172Z,997.72
2022-08-16T03:17:09.919Z,997.74
2022-08-16T03:17:32.347Z,997.74
2022-08-16T03:17:54.225Z,997.74
2022-08-16T03:18:34.193Z,997.74
2022-08-16T03:18:42.333Z,997.76
2022-08-16T03:19:05.642Z,997.76
2022-08-16T03:19:47.240Z,997.78
2022-08-16T03:20:00.056Z,997.76
2022-08-16T03:20:21.296Z,997.78
2022-08-16T03:20:55.755Z,997.74
2022-08-16T03:21:15.243Z,997.72
2022-08-16T03:21:39.594Z,997.72
2022-08-16T03:22:01.172Z,997.72
2022-08-16T03:22:27.790Z,997.76
2022-08-16T03:22:49.227Z,997.76
2022-08-16T03:23:10.317Z,997.76
2022-08-16T03:23:36.143Z,997.76
2022-08-16T03:23:57.160Z,997.76
2022-08-16T03:24:28.339Z,997.74
2022-08-16T03:24:45.236Z,997.72
2022-08-16T03:25:07.305Z,997.74
2022-08-16T03:25:41.063Z,997.78
2022-08-16T03:25:55.533Z,997.74
2022-08-16T03:26:16.606Z,997.74
2022-08-16T03:26:39.094Z,997.74
2022-08-16T03:27:00.142Z,997.74
2022-08-16T03:27:23.849Z,997.74
2022-08-16T03:27:45.169Z,997.70
2022-08-16T03:28:08.006Z,997.72
2022-08-16T03:28:29.315Z,997.72
2022-08-16T03:28:51.342Z,997.72
2022-08-16T03:29:13.115Z,997.76
2022-08-16T03:29:34.161Z,997.74
2022-08-16T03:29:55.210Z,997.72
2022-08-16T03:30:17.874Z,997.74
2022-08-16T03:30:39.136Z,997.74
2022-08-16T03:31:00.864Z,997.74
2022-08-16T03:31:21.934Z,997.74
2022-08-16T03:31:42.981Z,997.74
2022-08-16T03:32:04.027Z,997.74
2022-08-16T03:32:25.137Z,997.74
2022-08-16T03:32:51.175Z,997.78
2022-08-16T03:33:12.827Z,997.74
2022-08-16T03:33:33.875Z,997.78
2022-08-16T03:33:55.723Z,997.78
2022-08-16T03:34:16.774Z,997.78
2022-08-16T03:34:37.820Z,997.78
2022-08-16T03:34:59.021Z,997.76
2022-08-16T03:35:20.072Z,997.80
2022-08-16T03:35:41.117Z,997.80
2022-08-16T03:36:19.922Z,997.80
2022-08-16T03:36:30.796Z,997.82
2022-08-16T03:36:53.690Z,997.84
2022-08-16T03:37:14.738Z,997.84
2022-08-16T03:38:01.911Z,997.82
2022-08-16T03:38:03.707Z,997.86
2022-08-16T03:38:34.310Z,997.86
2022-08-16T03:38:52.107Z,997.82
2022-08-16T03:39:15.161Z,997.88
2022-08-16T03:39:42.981Z,997.84
2022-08-16T03:40:04.562Z,997.86
2022-08-16T03:40:33.072Z,997.86
2022-08-16T03:40:52.537Z,997.84
2022-08-16T03:41:24.313Z,997.84
2022-08-16T03:41:50.540Z,997.88
2022-08-16T03:42:07.523Z,997.86
2022-08-16T03:42:30.726Z,997.86
2022-08-16T03:43:18.907Z,997.88
2022-08-16T03:43:21.509Z,997.86
2022-08-16T03:43:51.986Z,997.84
2022-08-16T03:44:09.722Z,997.80
2022-08-16T03:44:44.831Z,997.84
2022-08-16T03:45:03.346Z,997.82
2022-08-16T03:45:31.306Z,997.82
2022-08-16T03:45:53.440Z,997.82
2022-08-16T03:46:48.092Z,997.84
2022-08-16T03:46:48.448Z,997.84
2022-08-16T03:47:10.136Z,997.82
2022-08-16T03:47:34.074Z,997.84
2022-08-16T03:47:58.315Z,997.82
2022-08-16T03:48:20.947Z,997.82
2022-08-16T03:48:47.912Z,997.80
2022-08-16T03:49:11.065Z,997.84
2022-08-16T03:49:36.546Z,997.88
2022-08-16T03:49:57.886Z,997.84
2022-08-16T03:50:25.782Z,997.84
2022-08-16T03:51:00.131Z,997.84
2022-08-16T03:51:14.366Z,997.86
2022-08-16T03:51:35.416Z,997.86
2022-08-16T03:51:57.147Z,997.84
2022-08-16T03:52:18.194Z,997.82
2022-08-16T03:52:46.091Z,997.86
2022-08-16T03:53:08.159Z,997.82
2022-08-16T03:53:37.829Z,997.82
2022-08-16T03:54:00.773Z,997.82
2022-08-16T03:54:22.441Z,997.82
2022-08-16T03:54:53.693Z,997.84
2022-08-16T03:55:15.300Z,997.84
2022-08-16T03:55:45.314Z,997.80
2022-08-16T03:56:03.382Z,997.84
2022-08-16T03:56:24.429Z,997.80
2022-08-16T03:56:56.788Z,997.80
2022-08-16T03:57:15.728Z,997.80
2022-08-16T03:57:37.575Z,997.84
2022-08-16T03:58:01.735Z,997.78
2022-08-16T03:58:23.322Z,997.78
2022-08-16T03:58:45.024Z,997.80
2022-08-16T03:59:09.362Z,997.80
2022-08-16T03:59:30.480Z,997.80
2022-08-16T03:59:51.466Z,997.78
2022-08-16T04:00:35.285Z,997.82
2022-08-16T04:00:41.144Z,997.80
2022-08-16T04:01:02.504Z,997.82
2022-08-16T04:01:23.865Z,997.82
2022-08-16T04:01:53.579Z,997.82
2022-08-16T04:02:22.441Z,997.82
2022-08-16T04:02:41.889Z,997.82
2022-08-16T04:03:02.915Z,997.84
2022-08-16T04:03:26.377Z,997.82
2022-08-16T04:03:50.937Z,997.80
2022-08-16T04:04:17.632Z,997.80
2022-08-16T04:04:40.756Z,997.80
2022-08-16T04:05:02.186Z,997.82
2022-08-16T04:05:25.045Z,997.82
2022-08-16T04:05:46.757Z,997.80
2022-08-16T04:06:07.923Z,997.82
2022-08-16T04:06:30.555Z,997.84
2022-08-16T04:06:51.605Z,997.80
2022-08-16T04:07:12.653Z,997.80
2022-08-16T04:07:35.713Z,997.80
2022-08-16T04:07:57.532Z,997.82
2022-08-16T04:08:22.787Z,997.80
2022-08-16T04:08:45.545Z,997.80
2022-08-16T04:09:06.592Z,997.80
2022-08-16T04:09:35.463Z,997.82
2022-08-16T04:09:56.719Z,997.84
2022-08-16T04:10:37.342Z,997.82
2022-08-16T04:10:44.975Z,997.82
2022-08-16T04:11:06.570Z,997.78
2022-08-16T04:11:28.224Z,997.82
2022-08-16T04:11:55.192Z,997.80
2022-08-16T04:12:52.274Z,997.82
2022-08-16T04:12:54.661Z,997.80
2022-08-16T04:13:20.395Z,997.80
2022-08-16T04:14:00.468Z,997.82
2022-08-16T04:14:32.540Z,997.84
2022-08-16T04:14:32.707Z,997.84
2022-08-16T04:14:54.524Z,997.86
2022-08-16T04:15:16.942Z,997.84
2022-08-16T04:15:38.089Z,997.84
2022-08-16T04:16:01.966Z,997.82
2022-08-16T04:16:28.315Z,997.84
2022-08-16T04:16:49.443Z,997.84
2022-08-16T04:17:12.075Z,997.80
2022-08-16T04:17:33.118Z,997.82
2022-08-16T04:17:56.245Z,997.84
2022-08-16T04:18:17.297Z,997.84
2022-08-16T04:18:38.344Z,997.84
2022-08-16T04:19:02.434Z,997.84
2022-08-16T04:19:25.139Z,997.84
2022-08-16T04:19:54.740Z,997.86
2022-08-16T04:20:24.137Z,997.86
2022-08-16T04:20:46.030Z,997.84
2022-08-16T04:21:07.781Z,997.86
2022-08-16T04:21:29.625Z,997.88
2022-08-16T04:21:50.809Z,997.88
2022-08-16T04:22:17.770Z,997.88
2022-08-16T04:22:39.825Z,997.86
2022-08-16T04:23:01.018Z,997.90
2022-08-16T04:23:22.347Z,997.90
2022-08-16T04:23:43.401Z,997.92
2022-08-16T04:24:07.937Z,997.88
2022-08-16T04:24:29.202Z,997.92
2022-08-16T04:24:54.106Z,997.88
2022-08-16T04:25:16.145Z,997.88
2022-08-16T04:25:37.191Z,997.88
2022-08-16T04:25:58.240Z,997.86
2022-08-16T04:26:23.182Z,997.90
2022-08-16T04:26:46.246Z,997.88
2022-08-16T04:27:08.946Z,997.86
2022-08-16T04:27:31.726Z,997.88
2022-08-16T04:27:54.288Z,997.90
2022-08-16T04:28:53.659Z,997.90
2022-08-16T04:28:54.531Z,997.90
2022-08-16T04:29:15.271Z,997.92
2022-08-16T04:29:46.078Z,997.90
2022-08-16T04:30:05.025Z,997.92
2022-08-16T04:30:34.772Z,997.90
2022-08-16T04:30:56.723Z,997.94
2022-08-16T04:31:17.780Z,997.94
2022-08-16T04:31:38.833Z,997.94
2022-08-16T04:32:04.763Z,997.96
2022-08-16T04:32:26.562Z,997.96
2022-08-16T04:32:47.762Z,997.96
2022-08-16T04:33:10.242Z,997.97
2022-08-16T04:33:34.942Z,997.96
2022-08-16T04:33:56.115Z,997.96
2022-08-16T04:34:17.171Z,997.97
2022-08-16T04:34:38.450Z,997.96
2022-08-16T04:35:02.245Z,997.96
2022-08-16T04:35:26.628Z,997.94
2022-08-16T04:35:53.593Z,997.97
2022-08-16T04:36:19.726Z,997.97
2022-08-16T04:36:42.009Z,997.97
2022-08-16T04:37:08.972Z,997.99
2022-08-16T04:37:30.044Z,997.97
2022-08-16T04:37:53.860Z,997.99
2022-08-16T04:38:21.287Z,997.97
2022-08-16T04:38:42.205Z,998.01
2022-08-16T04:39:03.259Z,997.96
2022-08-16T04:39:24.412Z,998.01
2022-08-16T04:39:55.699Z,998.01
2022-08-16T04:40:21.594Z,997.97
2022-08-16T04:40:42.995Z,998.01
2022-08-16T04:41:09.930Z,997.99
2022-08-16T04:41:32.251Z,997.99
2022-08-16T04:41:56.831Z,998.01
2022-08-16T04:42:18.289Z,998.01
2022-08-16T04:42:39.387Z,998.05
2022-08-16T04:43:00.406Z,998.05
2022-08-16T04:43:21.455Z,998.01
2022-08-16T04:43:44.699Z,998.07
2022-08-16T04:44:32.577Z,998.03
2022-08-16T04:44:54.043Z,998.05
2022-08-16T04:45:02.519Z,998.03
2022-08-16T04:45:35.748Z,998.07
2022-08-16T04:46:00.286Z,998.03
2022-08-16T04:47:00.085Z,998.05
2022-08-16T04:47:02.456Z,998.05
2022-08-16T04:47:21.785Z,998.01
2022-08-16T04:47:38.508Z,998.01
2022-08-16T04:48:00.752Z,998.01
2022-08-16T04:48:32.523Z,997.99
2022-08-16T04:48:49.688Z,997.99
2022-08-16T04:49:11.122Z,997.99
2022-08-16T04:49:38.409Z,998.01
2022-08-16T04:49:59.256Z,998.03
2022-08-16T04:50:20.288Z,998.01
2022-08-16T04:50:43.682Z,998.01
2022-08-16T04:51:11.521Z,998.03
2022-08-16T04:51:35.769Z,998.03
2022-08-16T04:51:57.251Z,998.03
2022-08-16T04:52:32.878Z,997.99
2022-08-16T04:52:45.290Z,998.01
2022-08-16T04:53:06.323Z,997.99
2022-08-16T04:53:28.012Z,997.99
2022-08-16T04:53:49.061Z,998.01